sensor_id;sensor_type;location;lat;lon;timestamp;P1;durP1;ratioP1;P2;durP2;ratioP2
23078;SDS011;11707;50.830;4.364;2023-02-27T00:00:47;6.75;;;1.77;;
23078;SDS011;11707;50.830;4.364;2023-02-27T00:03:12;4.35;;;1.52;;
23078;SDS011;11707;50.830;4.364;2023-02-27T00:05:39;2.42;;;1.27;;
23078;SDS011;11707;50.830;4.364;2023-02-27T00:08:06;11.38;;;1.85;;
23078;SDS011;11707;50.830;4.364;2023-02-27T00:10:32;3.45;;;1.27;;
23078;SDS011;11707;50.830;4.364;2023-02-27T00:12:58;8.48;;;1.70;;
23078;SDS011;11707;50.830;4.364;2023-02-27T00:15:26;3.88;;;1.52;;
23078;SDS011;11707;50.830;4.364;2023-02-27T00:17:54;2.55;;;1.15;;
23078;SDS011;11707;50.830;4.364;2023-02-27T00:20:20;6.93;;;2.22;;
23078;SDS011;11707;50.830;4.364;2023-02-27T00:22:46;4.63;;;1.38;;
23078;SDS011;11707;50.830;4.364;2023-02-27T00:25:12;2.92;;;1.40;;
23078;SDS011;11707;50.830;4.364;2023-02-27T00:27:38;7.40;;;2.45;;
23078;SDS011;11707;50.830;4.364;2023-02-27T00:30:05;5.03;;;1.67;;
23078;SDS011;11707;50.830;4.364;2023-02-27T00:32:32;4.97;;;1.33;;
23078;SDS011;11707;50.830;4.364;2023-02-27T00:35:01;2.78;;;1.02;;
23078;SDS011;11707;50.830;4.364;2023-02-27T00:37:31;4.85;;;1.10;;
23078;SDS011;11707;50.830;4.364;2023-02-27T00:39:58;7.93;;;1.38;;
23078;SDS011;11707;50.830;4.364;2023-02-27T00:42:24;3.17;;;1.42;;
23078;SDS011;11707;50.830;4.364;2023-02-27T00:44:52;3.63;;;1.75;;
23078;SDS011;11707;50.830;4.364;2023-02-27T00:47:18;7.38;;;1.42;;
23078;SDS011;11707;50.830;4.364;2023-02-27T00:49:43;5.68;;;1.50;;
23078;SDS011;11707;50.830;4.364;2023-02-27T00:52:09;8.48;;;2.17;;
23078;SDS011;11707;50.830;4.364;2023-02-27T00:54:35;9.65;;;2.33;;
23078;SDS011;11707;50.830;4.364;2023-02-27T00:57:01;3.97;;;1.23;;
23078;SDS011;11707;50.830;4.364;2023-02-27T00:59:29;5.88;;;1.40;;
23078;SDS011;11707;50.830;4.364;2023-02-27T01:01:55;3.53;;;1.38;;
23078;SDS011;11707;50.830;4.364;2023-02-27T01:04:20;6.85;;;1.85;;
23078;SDS011;11707;50.830;4.364;2023-02-27T01:06:46;7.45;;;1.80;;
23078;SDS011;11707;50.830;4.364;2023-02-27T01:09:14;7.85;;;1.85;;
23078;SDS011;11707;50.830;4.364;2023-02-27T01:11:40;4.18;;;1.30;;
23078;SDS011;11707;50.830;4.364;2023-02-27T01:14:06;7.63;;;1.42;;
23078;SDS011;11707;50.830;4.364;2023-02-27T01:16:31;5.75;;;1.67;;
23078;SDS011;11707;50.830;4.364;2023-02-27T01:18:57;3.83;;;1.15;;
23078;SDS011;11707;50.830;4.364;2023-02-27T01:21:23;6.03;;;1.90;;
23078;SDS011;11707;50.830;4.364;2023-02-27T01:23:49;3.15;;;1.23;;
23078;SDS011;11707;50.830;4.364;2023-02-27T01:26:14;6.55;;;2.08;;
23078;SDS011;11707;50.830;4.364;2023-02-27T01:28:42;5.40;;;1.58;;
23078;SDS011;11707;50.830;4.364;2023-02-27T01:31:11;3.28;;;1.10;;
23078;SDS011;11707;50.830;4.364;2023-02-27T01:33:38;6.15;;;1.60;;
23078;SDS011;11707;50.830;4.364;2023-02-27T01:36:04;3.45;;;1.00;;
23078;SDS011;11707;50.830;4.364;2023-02-27T01:38:29;3.92;;;1.58;;
23078;SDS011;11707;50.830;4.364;2023-02-27T01:40:57;4.90;;;3.10;;
23078;SDS011;11707;50.830;4.364;2023-02-27T01:43:24;5.60;;;1.58;;
23078;SDS011;11707;50.830;4.364;2023-02-27T01:45:50;1.60;;;0.98;;
23078;SDS011;11707;50.830;4.364;2023-02-27T01:48:17;2.95;;;1.23;;
23078;SDS011;11707;50.830;4.364;2023-02-27T01:51:07;5.32;;;1.48;;
23078;SDS011;11707;50.830;4.364;2023-02-27T01:53:38;3.10;;;1.48;;
23078;SDS011;11707;50.830;4.364;2023-02-27T01:59:05;5.60;;;1.75;;
23078;SDS011;11707;50.830;4.364;2023-02-27T02:01:33;3.22;;;1.20;;
23078;SDS011;11707;50.830;4.364;2023-02-27T02:06:50;8.32;;;1.98;;
23078;SDS011;11707;50.830;4.364;2023-02-27T02:09:22;3.65;;;1.60;;
23078;SDS011;11707;50.830;4.364;2023-02-27T02:11:49;6.22;;;1.45;;
23078;SDS011;11707;50.830;4.364;2023-02-27T02:14:15;6.88;;;1.77;;
23078;SDS011;11707;50.830;4.364;2023-02-27T02:16:48;2.15;;;1.17;;
23078;SDS011;11707;50.830;4.364;2023-02-27T02:25:40;4.72;;;1.50;;
23078;SDS011;11707;50.830;4.364;2023-02-27T02:40:04;5.40;;;1.60;;
23078;SDS011;11707;50.830;4.364;2023-02-27T02:45:30;6.18;;;1.30;;
23078;SDS011;11707;50.830;4.364;2023-02-27T02:50:56;4.43;;;1.27;;
23078;SDS011;11707;50.830;4.364;2023-02-27T02:53:42;6.95;;;1.73;;
23078;SDS011;11707;50.830;4.364;2023-02-27T02:59:11;5.50;;;1.30;;
23078;SDS011;11707;50.830;4.364;2023-02-27T03:01:53;14.00;;;1.85;;
23078;SDS011;11707;50.830;4.364;2023-02-27T03:06:59;4.70;;;1.50;;
23078;SDS011;11707;50.830;4.364;2023-02-27T03:09:45;4.65;;;1.52;;
23078;SDS011;11707;50.830;4.364;2023-02-27T03:12:18;4.78;;;1.60;;
23078;SDS011;11707;50.830;4.364;2023-02-27T03:14:58;5.05;;;1.00;;
23078;SDS011;11707;50.830;4.364;2023-02-27T03:17:39;8.55;;;1.77;;
23078;SDS011;11707;50.830;4.364;2023-02-27T03:20:07;5.47;;;1.85;;
23078;SDS011;11707;50.830;4.364;2023-02-27T03:22:41;5.70;;;2.45;;
23078;SDS011;11707;50.830;4.364;2023-02-27T03:25:11;10.02;;;2.08;;
23078;SDS011;11707;50.830;4.364;2023-02-27T03:27:46;2.95;;;1.42;;
23078;SDS011;11707;50.830;4.364;2023-02-27T03:33:20;3.13;;;1.50;;
23078;SDS011;11707;50.830;4.364;2023-02-27T03:38:36;6.82;;;1.80;;
23078;SDS011;11707;50.830;4.364;2023-02-27T03:41:11;4.90;;;1.40;;
23078;SDS011;11707;50.830;4.364;2023-02-27T03:46:29;6.60;;;1.55;;
23078;SDS011;11707;50.830;4.364;2023-02-27T03:48:55;5.88;;;1.48;;
23078;SDS011;11707;50.830;4.364;2023-02-27T03:51:21;7.28;;;2.03;;
23078;SDS011;11707;50.830;4.364;2023-02-27T03:53:51;7.03;;;1.55;;
23078;SDS011;11707;50.830;4.364;2023-02-27T03:56:27;5.63;;;1.65;;
23078;SDS011;11707;50.830;4.364;2023-02-27T03:58:58;3.50;;;1.55;;
23078;SDS011;11707;50.830;4.364;2023-02-27T04:01:24;3.08;;;1.48;;
23078;SDS011;11707;50.830;4.364;2023-02-27T04:03:59;5.88;;;1.83;;
23078;SDS011;11707;50.830;4.364;2023-02-27T04:06:35;4.35;;;1.60;;
23078;SDS011;11707;50.830;4.364;2023-02-27T04:21:01;3.83;;;1.58;;
23078;SDS011;11707;50.830;4.364;2023-02-27T04:31:27;6.03;;;1.85;;
23078;SDS011;11707;50.830;4.364;2023-02-27T04:34:20;3.78;;;2.20;;
23078;SDS011;11707;50.830;4.364;2023-02-27T04:36:58;5.28;;;1.90;;
23078;SDS011;11707;50.830;4.364;2023-02-27T04:39:33;5.15;;;2.05;;
23078;SDS011;11707;50.830;4.364;2023-02-27T04:42:12;6.55;;;2.58;;
23078;SDS011;11707;50.830;4.364;2023-02-27T04:44:40;4.68;;;2.28;;
23078;SDS011;11707;50.830;4.364;2023-02-27T04:47:08;8.82;;;2.30;;
23078;SDS011;11707;50.830;4.364;2023-02-27T04:49:41;6.72;;;3.50;;
23078;SDS011;11707;50.830;4.364;2023-02-27T04:52:21;8.88;;;1.95;;
23078;SDS011;11707;50.830;4.364;2023-02-27T04:57:39;8.20;;;2.00;;
23078;SDS011;11707;50.830;4.364;2023-02-27T05:00:11;9.07;;;2.40;;
23078;SDS011;11707;50.830;4.364;2023-02-27T05:02:45;6.78;;;2.10;;
23078;SDS011;11707;50.830;4.364;2023-02-27T05:05:15;8.35;;;2.00;;
23078;SDS011;11707;50.830;4.364;2023-02-27T05:07:49;7.32;;;2.45;;
23078;SDS011;11707;50.830;4.364;2023-02-27T05:10:37;6.47;;;2.97;;
23078;SDS011;11707;50.830;4.364;2023-02-27T05:13:24;7.60;;;2.28;;
23078;SDS011;11707;50.830;4.364;2023-02-27T05:16:21;6.68;;;2.25;;
23078;SDS011;11707;50.830;4.364;2023-02-27T05:18:52;6.45;;;2.38;;
23078;SDS011;11707;50.830;4.364;2023-02-27T05:24:05;5.20;;;2.47;;
23078;SDS011;11707;50.830;4.364;2023-02-27T05:34:48;5.97;;;2.28;;
23078;SDS011;11707;50.830;4.364;2023-02-27T05:37:30;4.72;;;2.28;;
23078;SDS011;11707;50.830;4.364;2023-02-27T05:40:01;8.48;;;2.60;;
23078;SDS011;11707;50.830;4.364;2023-02-27T05:42:42;5.35;;;3.60;;
23078;SDS011;11707;50.830;4.364;2023-02-27T05:45:16;7.80;;;2.78;;
23078;SDS011;11707;50.830;4.364;2023-02-27T05:47:48;20.08;;;2.90;;
23078;SDS011;11707;50.830;4.364;2023-02-27T05:50:22;6.53;;;1.98;;
23078;SDS011;11707;50.830;4.364;2023-02-27T05:52:52;5.05;;;2.40;;
23078;SDS011;11707;50.830;4.364;2023-02-27T05:55:22;6.03;;;2.38;;
23078;SDS011;11707;50.830;4.364;2023-02-27T05:57:52;6.68;;;2.33;;
23078;SDS011;11707;50.830;4.364;2023-02-27T06:00:26;8.70;;;2.90;;
23078;SDS011;11707;50.830;4.364;2023-02-27T06:03:01;6.43;;;2.88;;
23078;SDS011;11707;50.830;4.364;2023-02-27T06:05:27;13.50;;;3.05;;
23078;SDS011;11707;50.830;4.364;2023-02-27T06:07:53;6.45;;;3.33;;
23078;SDS011;11707;50.830;4.364;2023-02-27T06:10:19;7.97;;;2.63;;
23078;SDS011;11707;50.830;4.364;2023-02-27T06:12:45;10.43;;;2.85;;
23078;SDS011;11707;50.830;4.364;2023-02-27T06:15:11;10.25;;;2.53;;
23078;SDS011;11707;50.830;4.364;2023-02-27T06:17:37;9.13;;;2.80;;
23078;SDS011;11707;50.830;4.364;2023-02-27T06:20:03;7.70;;;2.22;;
23078;SDS011;11707;50.830;4.364;2023-02-27T06:22:33;10.43;;;2.90;;
23078;SDS011;11707;50.830;4.364;2023-02-27T06:24:59;11.50;;;3.22;;
23078;SDS011;11707;50.830;4.364;2023-02-27T06:27:25;8.40;;;4.47;;
23078;SDS011;11707;50.830;4.364;2023-02-27T06:29:51;10.00;;;3.30;;
23078;SDS011;11707;50.830;4.364;2023-02-27T06:32:17;6.18;;;2.95;;
23078;SDS011;11707;50.830;4.364;2023-02-27T06:34:43;8.90;;;2.53;;
23078;SDS011;11707;50.830;4.364;2023-02-27T06:37:09;10.85;;;3.45;;
23078;SDS011;11707;50.830;4.364;2023-02-27T06:39:35;12.73;;;3.17;;
23078;SDS011;11707;50.830;4.364;2023-02-27T06:42:00;8.40;;;3.05;;
23078;SDS011;11707;50.830;4.364;2023-02-27T06:44:28;10.82;;;3.17;;
23078;SDS011;11707;50.830;4.364;2023-02-27T06:46:54;8.80;;;3.15;;
23078;SDS011;11707;50.830;4.364;2023-02-27T06:49:20;11.27;;;3.60;;
23078;SDS011;11707;50.830;4.364;2023-02-27T06:51:46;7.10;;;2.70;;
23078;SDS011;11707;50.830;4.364;2023-02-27T06:54:11;6.55;;;2.38;;
23078;SDS011;11707;50.830;4.364;2023-02-27T06:56:37;6.03;;;2.63;;
23078;SDS011;11707;50.830;4.364;2023-02-27T06:59:03;6.63;;;3.22;;
23078;SDS011;11707;50.830;4.364;2023-02-27T07:01:28;8.13;;;2.95;;
23078;SDS011;11707;50.830;4.364;2023-02-27T07:03:54;7.88;;;2.78;;
23078;SDS011;11707;50.830;4.364;2023-02-27T07:06:24;6.43;;;3.20;;
23078;SDS011;11707;50.830;4.364;2023-02-27T07:08:50;7.85;;;3.03;;
23078;SDS011;11707;50.830;4.364;2023-02-27T07:11:16;8.85;;;3.08;;
23078;SDS011;11707;50.830;4.364;2023-02-27T07:13:42;6.78;;;2.97;;
23078;SDS011;11707;50.830;4.364;2023-02-27T07:16:08;8.90;;;3.03;;
23078;SDS011;11707;50.830;4.364;2023-02-27T07:18:34;5.72;;;2.40;;
23078;SDS011;11707;50.830;4.364;2023-02-27T07:20:59;11.70;;;2.83;;
23078;SDS011;11707;50.830;4.364;2023-02-27T07:23:25;10.88;;;3.10;;
23078;SDS011;11707;50.830;4.364;2023-02-27T07:25:51;7.93;;;3.78;;
23078;SDS011;11707;50.830;4.364;2023-02-27T07:28:17;6.13;;;3.05;;
23078;SDS011;11707;50.830;4.364;2023-02-27T07:30:44;9.05;;;3.45;;
23078;SDS011;11707;50.830;4.364;2023-02-27T07:33:13;11.40;;;3.08;;
23078;SDS011;11707;50.830;4.364;2023-02-27T07:35:38;14.00;;;3.85;;
23078;SDS011;11707;50.830;4.364;2023-02-27T07:38:04;5.93;;;3.45;;
23078;SDS011;11707;50.830;4.364;2023-02-27T07:40:30;6.45;;;2.83;;
23078;SDS011;11707;50.830;4.364;2023-02-27T07:42:56;12.35;;;5.03;;
23078;SDS011;11707;50.830;4.364;2023-02-27T07:45:22;9.52;;;3.72;;
23078;SDS011;11707;50.830;4.364;2023-02-27T07:47:47;9.02;;;3.58;;
23078;SDS011;11707;50.830;4.364;2023-02-27T07:50:13;17.45;;;3.50;;
23078;SDS011;11707;50.830;4.364;2023-02-27T07:52:42;10.63;;;4.57;;
23078;SDS011;11707;50.830;4.364;2023-02-27T07:55:09;12.30;;;3.63;;
23078;SDS011;11707;50.830;4.364;2023-02-27T07:57:36;14.48;;;3.15;;
23078;SDS011;11707;50.830;4.364;2023-02-27T08:00:03;5.82;;;3.17;;
23078;SDS011;11707;50.830;4.364;2023-02-27T08:02:30;11.40;;;3.40;;
23078;SDS011;11707;50.830;4.364;2023-02-27T08:04:56;8.15;;;4.43;;
23078;SDS011;11707;50.830;4.364;2023-02-27T08:07:22;4.68;;;3.00;;
23078;SDS011;11707;50.830;4.364;2023-02-27T08:09:49;8.05;;;3.70;;
23078;SDS011;11707;50.830;4.364;2023-02-27T08:12:15;6.50;;;3.15;;
23078;SDS011;11707;50.830;4.364;2023-02-27T08:14:40;8.00;;;3.55;;
23078;SDS011;11707;50.830;4.364;2023-02-27T08:17:06;7.60;;;3.03;;
23078;SDS011;11707;50.830;4.364;2023-02-27T08:19:34;9.07;;;3.25;;
23078;SDS011;11707;50.830;4.364;2023-02-27T08:22:00;9.00;;;3.80;;
23078;SDS011;11707;50.830;4.364;2023-02-27T08:24:27;9.60;;;3.63;;
23078;SDS011;11707;50.830;4.364;2023-02-27T08:26:53;8.50;;;4.07;;
23078;SDS011;11707;50.830;4.364;2023-02-27T08:29:19;6.75;;;3.97;;
23078;SDS011;11707;50.830;4.364;2023-02-27T08:31:45;5.22;;;3.20;;
23078;SDS011;11707;50.830;4.364;2023-02-27T08:34:11;4.82;;;2.30;;
23078;SDS011;11707;50.830;4.364;2023-02-27T08:36:37;7.82;;;3.22;;
23078;SDS011;11707;50.830;4.364;2023-02-27T08:39:04;13.57;;;4.80;;
23078;SDS011;11707;50.830;4.364;2023-02-27T08:41:31;7.32;;;3.90;;
23078;SDS011;11707;50.830;4.364;2023-02-27T08:43:59;11.70;;;8.98;;
23078;SDS011;11707;50.830;4.364;2023-02-27T08:46:24;12.80;;;4.32;;
23078;SDS011;11707;50.830;4.364;2023-02-27T08:48:50;10.45;;;3.97;;
23078;SDS011;11707;50.830;4.364;2023-02-27T08:51:16;15.70;;;5.30;;
23078;SDS011;11707;50.830;4.364;2023-02-27T08:53:44;10.38;;;3.83;;
23078;SDS011;11707;50.830;4.364;2023-02-27T08:56:09;11.32;;;4.45;;
23078;SDS011;11707;50.830;4.364;2023-02-27T08:58:40;9.35;;;4.18;;
23078;SDS011;11707;50.830;4.364;2023-02-27T09:01:06;7.65;;;3.72;;
23078;SDS011;11707;50.830;4.364;2023-02-27T09:03:32;10.68;;;4.10;;
23078;SDS011;11707;50.830;4.364;2023-02-27T09:05:57;8.73;;;3.88;;
23078;SDS011;11707;50.830;4.364;2023-02-27T09:08:24;5.22;;;2.72;;
23078;SDS011;11707;50.830;4.364;2023-02-27T09:10:56;10.07;;;3.65;;
23078;SDS011;11707;50.830;4.364;2023-02-27T09:13:21;7.88;;;3.83;;
23078;SDS011;11707;50.830;4.364;2023-02-27T09:15:47;7.95;;;2.63;;
23078;SDS011;11707;50.830;4.364;2023-02-27T09:18:13;7.47;;;3.22;;
23078;SDS011;11707;50.830;4.364;2023-02-27T09:20:39;7.93;;;3.72;;
23078;SDS011;11707;50.830;4.364;2023-02-27T09:23:05;9.43;;;3.00;;
23078;SDS011;11707;50.830;4.364;2023-02-27T09:25:31;8.38;;;3.40;;
23078;SDS011;11707;50.830;4.364;2023-02-27T09:27:59;15.05;;;4.22;;
23078;SDS011;11707;50.830;4.364;2023-02-27T09:30:25;13.60;;;3.78;;
23078;SDS011;11707;50.830;4.364;2023-02-27T09:32:51;6.60;;;2.97;;
23078;SDS011;11707;50.830;4.364;2023-02-27T09:35:19;5.65;;;2.40;;
23078;SDS011;11707;50.830;4.364;2023-02-27T09:46:20;5.57;;;3.30;;
23078;SDS011;11707;50.830;4.364;2023-02-27T09:48:52;7.90;;;3.00;;
23078;SDS011;11707;50.830;4.364;2023-02-27T09:51:21;7.95;;;3.40;;
23078;SDS011;11707;50.830;4.364;2023-02-27T09:53:50;7.32;;;2.33;;
23078;SDS011;11707;50.830;4.364;2023-02-27T09:59:38;5.78;;;2.85;;
23078;SDS011;11707;50.830;4.364;2023-02-27T10:08:05;6.05;;;2.67;;
23078;SDS011;11707;50.830;4.364;2023-02-27T10:11:09;5.40;;;2.08;;
23078;SDS011;11707;50.830;4.364;2023-02-27T10:16:24;2.57;;;1.67;;
23078;SDS011;11707;50.830;4.364;2023-02-27T10:18:55;4.78;;;1.85;;
23078;SDS011;11707;50.830;4.364;2023-02-27T10:21:30;3.40;;;2.10;;
23078;SDS011;11707;50.830;4.364;2023-02-27T10:24:21;4.60;;;1.90;;
23078;SDS011;11707;50.830;4.364;2023-02-27T10:26:51;9.75;;;1.83;;
23078;SDS011;11707;50.830;4.364;2023-02-27T10:32:02;6.78;;;2.00;;
23078;SDS011;11707;50.830;4.364;2023-02-27T10:34:33;6.47;;;2.88;;
23078;SDS011;11707;50.830;4.364;2023-02-27T10:37:03;4.22;;;1.60;;
23078;SDS011;11707;50.830;4.364;2023-02-27T10:39:34;7.10;;;2.40;;
23078;SDS011;11707;50.830;4.364;2023-02-27T10:42:12;6.28;;;2.20;;
23078;SDS011;11707;50.830;4.364;2023-02-27T10:44:42;3.00;;;1.58;;
23078;SDS011;11707;50.830;4.364;2023-02-27T10:47:14;6.47;;;1.92;;
23078;SDS011;11707;50.830;4.364;2023-02-27T10:49:40;34.20;;;2.83;;
23078;SDS011;11707;50.830;4.364;2023-02-27T10:52:09;6.03;;;2.50;;
23078;SDS011;11707;50.830;4.364;2023-02-27T10:54:40;11.32;;;2.22;;
23078;SDS011;11707;50.830;4.364;2023-02-27T10:59:53;12.75;;;2.70;;
23078;SDS011;11707;50.830;4.364;2023-02-27T11:02:28;7.20;;;1.90;;
23078;SDS011;11707;50.830;4.364;2023-02-27T11:05:04;2.75;;;1.52;;
23078;SDS011;11707;50.830;4.364;2023-02-27T11:07:36;4.63;;;1.55;;
23078;SDS011;11707;50.830;4.364;2023-02-27T11:12:37;6.00;;;1.88;;
23078;SDS011;11707;50.830;4.364;2023-02-27T11:17:39;3.00;;;1.63;;
23078;SDS011;11707;50.830;4.364;2023-02-27T11:20:05;3.22;;;1.63;;
23078;SDS011;11707;50.830;4.364;2023-02-27T11:25:38;5.32;;;1.75;;
23078;SDS011;11707;50.830;4.364;2023-02-27T11:28:21;5.15;;;2.67;;
23078;SDS011;11707;50.830;4.364;2023-02-27T11:33:52;7.75;;;2.92;;
23078;SDS011;11707;50.830;4.364;2023-02-27T11:36:37;8.35;;;2.20;;
23078;SDS011;11707;50.830;4.364;2023-02-27T11:39:15;4.72;;;1.92;;
23078;SDS011;11707;50.830;4.364;2023-02-27T11:42:30;6.90;;;2.72;;
23078;SDS011;11707;50.830;4.364;2023-02-27T11:44:56;6.65;;;1.65;;
23078;SDS011;11707;50.830;4.364;2023-02-27T11:47:37;9.60;;;1.95;;
23078;SDS011;11707;50.830;4.364;2023-02-27T11:52:52;6.10;;;2.30;;
23078;SDS011;11707;50.830;4.364;2023-02-27T11:55:27;5.93;;;2.33;;
23078;SDS011;11707;50.830;4.364;2023-02-27T11:57:57;5.22;;;2.42;;
23078;SDS011;11707;50.830;4.364;2023-02-27T12:00:42;8.18;;;2.25;;
23078;SDS011;11707;50.830;4.364;2023-02-27T12:05:53;3.50;;;1.65;;
23078;SDS011;11707;50.830;4.364;2023-02-27T12:11:12;11.38;;;2.25;;
23078;SDS011;11707;50.830;4.364;2023-02-27T12:13:48;3.08;;;2.03;;
23078;SDS011;11707;50.830;4.364;2023-02-27T12:16:28;3.97;;;2.03;;
23078;SDS011;11707;50.830;4.364;2023-02-27T12:21:34;9.57;;;1.65;;
23078;SDS011;11707;50.830;4.364;2023-02-27T12:24:46;4.28;;;2.03;;
23078;SDS011;11707;50.830;4.364;2023-02-27T12:32:23;4.88;;;1.85;;
23078;SDS011;11707;50.830;4.364;2023-02-27T12:34:58;3.83;;;1.65;;
23078;SDS011;11707;50.830;4.364;2023-02-27T12:37:28;3.80;;;1.42;;
23078;SDS011;11707;50.830;4.364;2023-02-27T12:39:58;3.53;;;1.45;;
23078;SDS011;11707;50.830;4.364;2023-02-27T12:50:42;5.07;;;1.58;;
23078;SDS011;11707;50.830;4.364;2023-02-27T12:56:11;4.07;;;1.70;;
23078;SDS011;11707;50.830;4.364;2023-02-27T13:04:15;3.10;;;1.55;;
23078;SDS011;11707;50.830;4.364;2023-02-27T13:07:12;5.97;;;1.85;;
23078;SDS011;11707;50.830;4.364;2023-02-27T13:15:03;2.47;;;1.10;;
23078;SDS011;11707;50.830;4.364;2023-02-27T13:17:58;3.25;;;1.33;;
23078;SDS011;11707;50.830;4.364;2023-02-27T13:20:37;3.58;;;1.35;;
23078;SDS011;11707;50.830;4.364;2023-02-27T13:26:00;4.38;;;1.45;;
23078;SDS011;11707;50.830;4.364;2023-02-27T13:28:33;3.40;;;1.50;;
23078;SDS011;11707;50.830;4.364;2023-02-27T13:31:03;9.50;;;1.85;;
23078;SDS011;11707;50.830;4.364;2023-02-27T13:36:32;4.13;;;1.38;;
23078;SDS011;11707;50.830;4.364;2023-02-27T13:39:03;3.25;;;1.60;;
23078;SDS011;11707;50.830;4.364;2023-02-27T13:42:00;3.15;;;1.50;;
23078;SDS011;11707;50.830;4.364;2023-02-27T13:44:37;4.15;;;1.48;;
23078;SDS011;11707;50.830;4.364;2023-02-27T13:49:52;5.47;;;1.67;;
23078;SDS011;11707;50.830;4.364;2023-02-27T13:52:26;2.28;;;1.30;;
23078;SDS011;11707;50.830;4.364;2023-02-27T13:54:54;3.03;;;1.40;;
23078;SDS011;11707;50.830;4.364;2023-02-27T13:57:32;3.50;;;1.10;;
23078;SDS011;11707;50.830;4.364;2023-02-27T14:00:20;3.85;;;1.25;;
23078;SDS011;11707;50.830;4.364;2023-02-27T14:05:25;3.33;;;1.40;;
23078;SDS011;11707;50.830;4.364;2023-02-27T14:08:15;4.47;;;1.23;;
23078;SDS011;11707;50.830;4.364;2023-02-27T14:21:58;3.83;;;1.20;;
23078;SDS011;11707;50.830;4.364;2023-02-27T14:24:40;4.57;;;1.10;;
23078;SDS011;11707;50.830;4.364;2023-02-27T14:27:23;3.65;;;1.70;;
23078;SDS011;11707;50.830;4.364;2023-02-27T14:29:51;3.75;;;1.30;;
23078;SDS011;11707;50.830;4.364;2023-02-27T14:32:22;4.05;;;1.20;;
23078;SDS011;11707;50.830;4.364;2023-02-27T14:34:50;2.08;;;0.88;;
23078;SDS011;11707;50.830;4.364;2023-02-27T14:37:18;3.22;;;1.52;;
23078;SDS011;11707;50.830;4.364;2023-02-27T14:39:50;4.30;;;1.13;;
23078;SDS011;11707;50.830;4.364;2023-02-27T14:45:28;6.20;;;1.70;;
23078;SDS011;11707;50.830;4.364;2023-02-27T14:47:55;3.10;;;1.20;;
23078;SDS011;11707;50.830;4.364;2023-02-27T14:50:26;4.45;;;2.08;;
23078;SDS011;11707;50.830;4.364;2023-02-27T14:52:52;5.88;;;1.83;;
23078;SDS011;11707;50.830;4.364;2023-02-27T14:55:28;4.57;;;1.90;;
23078;SDS011;11707;50.830;4.364;2023-02-27T14:58:00;6.65;;;1.40;;
23078;SDS011;11707;50.830;4.364;2023-02-27T15:00:39;9.40;;;1.42;;
23078;SDS011;11707;50.830;4.364;2023-02-27T15:03:09;3.30;;;1.05;;
23078;SDS011;11707;50.830;4.364;2023-02-27T15:05:36;8.35;;;1.33;;
23078;SDS011;11707;50.830;4.364;2023-02-27T15:08:02;3.15;;;1.42;;
23078;SDS011;11707;50.830;4.364;2023-02-27T15:10:28;5.90;;;1.58;;
23078;SDS011;11707;50.830;4.364;2023-02-27T15:12:56;3.67;;;1.83;;
23078;SDS011;11707;50.830;4.364;2023-02-27T15:15:25;2.92;;;1.30;;
23078;SDS011;11707;50.830;4.364;2023-02-27T15:17:52;3.20;;;1.25;;
23078;SDS011;11707;50.830;4.364;2023-02-27T15:20:32;4.07;;;1.35;;
23078;SDS011;11707;50.830;4.364;2023-02-27T15:23:00;3.83;;;1.40;;
23078;SDS011;11707;50.830;4.364;2023-02-27T15:25:43;3.95;;;1.42;;
23078;SDS011;11707;50.830;4.364;2023-02-27T15:28:22;5.10;;;1.55;;
23078;SDS011;11707;50.830;4.364;2023-02-27T15:30:52;8.88;;;2.05;;
23078;SDS011;11707;50.830;4.364;2023-02-27T15:33:20;3.00;;;1.95;;
23078;SDS011;11707;50.830;4.364;2023-02-27T15:35:53;5.68;;;1.58;;
23078;SDS011;11707;50.830;4.364;2023-02-27T15:40:52;6.95;;;1.63;;
23078;SDS011;11707;50.830;4.364;2023-02-27T15:43:18;5.40;;;1.40;;
23078;SDS011;11707;50.830;4.364;2023-02-27T15:45:45;2.47;;;1.30;;
23078;SDS011;11707;50.830;4.364;2023-02-27T15:48:13;3.92;;;1.30;;
23078;SDS011;11707;50.830;4.364;2023-02-27T15:50:41;3.60;;;1.27;;
23078;SDS011;11707;50.830;4.364;2023-02-27T15:53:16;5.10;;;1.20;;
23078;SDS011;11707;50.830;4.364;2023-02-27T15:55:51;2.55;;;1.10;;
23078;SDS011;11707;50.830;4.364;2023-02-27T15:58:34;2.63;;;1.48;;
23078;SDS011;11707;50.830;4.364;2023-02-27T16:01:18;4.72;;;1.90;;
23078;SDS011;11707;50.830;4.364;2023-02-27T16:03:52;3.65;;;1.38;;
23078;SDS011;11707;50.830;4.364;2023-02-27T16:06:20;5.55;;;1.40;;
23078;SDS011;11707;50.830;4.364;2023-02-27T16:09:33;3.97;;;1.58;;
23078;SDS011;11707;50.830;4.364;2023-02-27T16:11:46;6.43;;;2.03;;
23078;SDS011;11707;50.830;4.364;2023-02-27T16:17:19;4.97;;;1.80;;
23078;SDS011;11707;50.830;4.364;2023-02-27T16:19:47;4.05;;;1.63;;
23078;SDS011;11707;50.830;4.364;2023-02-27T16:24:43;3.35;;;1.60;;
23078;SDS011;11707;50.830;4.364;2023-02-27T16:27:26;4.25;;;1.70;;
23078;SDS011;11707;50.830;4.364;2023-02-27T16:29:54;5.95;;;1.48;;
23078;SDS011;11707;50.830;4.364;2023-02-27T16:32:31;1.80;;;1.25;;
23078;SDS011;11707;50.830;4.364;2023-02-27T16:37:39;5.20;;;2.30;;
23078;SDS011;11707;50.830;4.364;2023-02-27T16:40:14;6.13;;;2.17;;
23078;SDS011;11707;50.830;4.364;2023-02-27T16:42:48;6.70;;;2.30;;
23078;SDS011;11707;50.830;4.364;2023-02-27T16:45:24;4.97;;;1.60;;
23078;SDS011;11707;50.830;4.364;2023-02-27T16:47:55;5.03;;;1.65;;
23078;SDS011;11707;50.830;4.364;2023-02-27T16:50:25;4.20;;;1.92;;
23078;SDS011;11707;50.830;4.364;2023-02-27T16:52:55;7.85;;;1.90;;
23078;SDS011;11707;50.830;4.364;2023-02-27T16:55:22;3.58;;;1.60;;
23078;SDS011;11707;50.830;4.364;2023-02-27T16:57:48;4.90;;;1.85;;
23078;SDS011;11707;50.830;4.364;2023-02-27T17:00:14;8.90;;;2.40;;
23078;SDS011;11707;50.830;4.364;2023-02-27T17:02:41;8.30;;;1.98;;
23078;SDS011;11707;50.830;4.364;2023-02-27T17:05:09;6.22;;;2.15;;
23078;SDS011;11707;50.830;4.364;2023-02-27T17:07:35;3.42;;;1.73;;
23078;SDS011;11707;50.830;4.364;2023-02-27T17:10:01;6.05;;;2.22;;
23078;SDS011;11707;50.830;4.364;2023-02-27T17:12:29;6.45;;;1.63;;
23078;SDS011;11707;50.830;4.364;2023-02-27T17:14:57;8.43;;;2.63;;
23078;SDS011;11707;50.830;4.364;2023-02-27T17:17:23;3.50;;;1.95;;
23078;SDS011;11707;50.830;4.364;2023-02-27T17:19:49;4.80;;;2.03;;
23078;SDS011;11707;50.830;4.364;2023-02-27T17:22:18;9.48;;;2.75;;
23078;SDS011;11707;50.830;4.364;2023-02-27T17:24:44;3.85;;;1.55;;
23078;SDS011;11707;50.830;4.364;2023-02-27T17:27:13;4.70;;;1.42;;
23078;SDS011;11707;50.830;4.364;2023-02-27T17:29:38;3.13;;;1.58;;
23078;SDS011;11707;50.830;4.364;2023-02-27T17:32:04;5.00;;;1.98;;
23078;SDS011;11707;50.830;4.364;2023-02-27T17:34:30;5.53;;;1.77;;
23078;SDS011;11707;50.830;4.364;2023-02-27T17:36:58;4.32;;;1.90;;
23078;SDS011;11707;50.830;4.364;2023-02-27T17:39:26;2.33;;;1.50;;
23078;SDS011;11707;50.830;4.364;2023-02-27T17:41:54;4.40;;;1.80;;
23078;SDS011;11707;50.830;4.364;2023-02-27T17:44:20;5.53;;;2.25;;
23078;SDS011;11707;50.830;4.364;2023-02-27T17:46:45;5.15;;;1.70;;
23078;SDS011;11707;50.830;4.364;2023-02-27T17:49:11;6.05;;;1.90;;
23078;SDS011;11707;50.830;4.364;2023-02-27T17:51:37;4.47;;;1.73;;
23078;SDS011;11707;50.830;4.364;2023-02-27T17:54:03;6.50;;;2.05;;
23078;SDS011;11707;50.830;4.364;2023-02-27T17:56:30;9.55;;;2.70;;
23078;SDS011;11707;50.830;4.364;2023-02-27T17:58:56;7.35;;;2.22;;
23078;SDS011;11707;50.830;4.364;2023-02-27T18:01:23;6.20;;;2.38;;
23078;SDS011;11707;50.830;4.364;2023-02-27T18:03:49;5.03;;;2.55;;
23078;SDS011;11707;50.830;4.364;2023-02-27T18:06:16;8.48;;;2.45;;
23078;SDS011;11707;50.830;4.364;2023-02-27T18:08:44;3.60;;;2.10;;
23078;SDS011;11707;50.830;4.364;2023-02-27T18:11:11;5.47;;;2.38;;
23078;SDS011;11707;50.830;4.364;2023-02-27T18:13:38;6.25;;;2.20;;